sensor_id;sensor_type;location;lat;lon;timestamp;temperature;humidity
28845;DHT22;15976;47.938;7.758;2023-08-06T00:00:59;17.30;72.70
28845;DHT22;15976;47.938;7.758;2023-08-06T00:03:26;17.10;74.40
28845;DHT22;15976;47.938;7.758;2023-08-06T00:05:53;17.00;75.50
28845;DHT22;15976;47.938;7.758;2023-08-06T00:08:20;17.00;76.80
28845;DHT22;15976;47.938;7.758;2023-08-06T00:10:48;16.80;77.50
28845;DHT22;15976;47.938;7.758;2023-08-06T00:13:15;16.70;78.70
28845;DHT22;15976;47.938;7.758;2023-08-06T00:15:43;16.50;79.80
28845;DHT22;15976;47.938;7.758;2023-08-06T00:18:10;16.50;81.10
28845;DHT22;15976;47.938;7.758;2023-08-06T00:20:39;16.40;81.30
28845;DHT22;15976;47.938;7.758;2023-08-06T00:23:07;16.40;82.00
28845;DHT22;15976;47.938;7.758;2023-08-06T00:25:36;16.50;82.40
28845;DHT22;15976;47.938;7.758;2023-08-06T00:28:03;16.40;82.40
28845;DHT22;15976;47.938;7.758;2023-08-06T00:30:31;16.40;82.60
28845;DHT22;15976;47.938;7.758;2023-08-06T00:32:58;16.40;82.70
28845;DHT22;15976;47.938;7.758;2023-08-06T00:35:25;16.30;83.00
28845;DHT22;15976;47.938;7.758;2023-08-06T00:37:52;16.30;83.80
28845;DHT22;15976;47.938;7.758;2023-08-06T00:40:20;16.20;84.30
28845;DHT22;15976;47.938;7.758;2023-08-06T00:42:48;16.30;84.50
28845;DHT22;15976;47.938;7.758;2023-08-06T00:45:16;16.30;84.80
28845;DHT22;15976;47.938;7.758;2023-08-06T00:47:44;16.20;84.60
28845;DHT22;15976;47.938;7.758;2023-08-06T00:50:11;16.20;85.00
28845;DHT22;15976;47.938;7.758;2023-08-06T00:52:38;16.10;85.10
28845;DHT22;15976;47.938;7.758;2023-08-06T00:55:06;16.00;85.10
28845;DHT22;15976;47.938;7.758;2023-08-06T00:57:34;16.00;85.60
28845;DHT22;15976;47.938;7.758;2023-08-06T01:00:01;15.90;85.70
28845;DHT22;15976;47.938;7.758;2023-08-06T01:02:29;15.80;85.40
28845;DHT22;15976;47.938;7.758;2023-08-06T01:04:56;15.70;86.10
28845;DHT22;15976;47.938;7.758;2023-08-06T01:15:30;15.60;86.70
28845;DHT22;15976;47.938;7.758;2023-08-06T01:17:58;15.60;86.80
28845;DHT22;15976;47.938;7.758;2023-08-06T01:20:30;15.50;86.70
28845;DHT22;15976;47.938;7.758;2023-08-06T01:22:58;15.60;87.10
28845;DHT22;15976;47.938;7.758;2023-08-06T01:28:32;15.60;87.50
28845;DHT22;15976;47.938;7.758;2023-08-06T01:31:02;15.60;87.50
28845;DHT22;15976;47.938;7.758;2023-08-06T01:33:32;15.70;87.50
28845;DHT22;15976;47.938;7.758;2023-08-06T01:36:02;15.80;87.20
28845;DHT22;15976;47.938;7.758;2023-08-06T01:38:31;15.80;87.10
28845;DHT22;15976;47.938;7.758;2023-08-06T01:40:58;15.90;87.00
28845;DHT22;15976;47.938;7.758;2023-08-06T01:43:25;16.00;87.00
28845;DHT22;15976;47.938;7.758;2023-08-06T01:45:52;16.00;86.40
28845;DHT22;15976;47.938;7.758;2023-08-06T01:48:19;16.10;86.00
28845;DHT22;15976;47.938;7.758;2023-08-06T01:50:46;16.10;85.90
28845;DHT22;15976;47.938;7.758;2023-08-06T01:53:13;16.20;85.90
28845;DHT22;15976;47.938;7.758;2023-08-06T01:55:40;16.20;85.30
28845;DHT22;15976;47.938;7.758;2023-08-06T01:58:07;16.20;85.10
28845;DHT22;15976;47.938;7.758;2023-08-06T02:00:35;16.30;84.60
28845;DHT22;15976;47.938;7.758;2023-08-06T02:03:02;16.40;84.50
28845;DHT22;15976;47.938;7.758;2023-08-06T02:05:29;16.40;84.60
28845;DHT22;15976;47.938;7.758;2023-08-06T02:07:56;16.50;84.30
28845;DHT22;15976;47.938;7.758;2023-08-06T02:10:23;16.50;83.60
28845;DHT22;15976;47.938;7.758;2023-08-06T02:12:50;16.50;83.60
28845;DHT22;15976;47.938;7.758;2023-08-06T02:15:17;16.40;84.00
28845;DHT22;15976;47.938;7.758;2023-08-06T02:17:44;16.40;84.50
28845;DHT22;15976;47.938;7.758;2023-08-06T02:20:11;16.30;84.80
28845;DHT22;15976;47.938;7.758;2023-08-06T02:22:38;16.30;86.30
28845;DHT22;15976;47.938;7.758;2023-08-06T02:25:05;16.10;87.50
28845;DHT22;15976;47.938;7.758;2023-08-06T02:27:33;16.10;87.90
28845;DHT22;15976;47.938;7.758;2023-08-06T02:30:00;16.00;89.00
28845;DHT22;15976;47.938;7.758;2023-08-06T02:32:27;16.10;89.60
28845;DHT22;15976;47.938;7.758;2023-08-06T02:34:56;16.00;89.70
28845;DHT22;15976;47.938;7.758;2023-08-06T02:37:23;16.00;90.10
28845;DHT22;15976;47.938;7.758;2023-08-06T02:39:50;16.00;90.10
28845;DHT22;15976;47.938;7.758;2023-08-06T02:42:18;16.00;89.80
28845;DHT22;15976;47.938;7.758;2023-08-06T02:44:45;15.80;89.90
28845;DHT22;15976;47.938;7.758;2023-08-06T02:47:12;15.70;90.40
28845;DHT22;15976;47.938;7.758;2023-08-06T02:49:39;15.70;90.50
28845;DHT22;15976;47.938;7.758;2023-08-06T02:52:07;15.60;90.40
28845;DHT22;15976;47.938;7.758;2023-08-06T02:54:35;15.50;90.50
28845;DHT22;15976;47.938;7.758;2023-08-06T02:57:02;15.50;90.70
28845;DHT22;15976;47.938;7.758;2023-08-06T02:59:32;15.50;90.60
28845;DHT22;15976;47.938;7.758;2023-08-06T03:02:07;15.40;90.50
28845;DHT22;15976;47.938;7.758;2023-08-06T03:04:53;15.40;90.50
28845;DHT22;15976;47.938;7.758;2023-08-06T03:07:23;15.20;90.50
28845;DHT22;15976;47.938;7.758;2023-08-06T03:09:55;15.10;90.50
28845;DHT22;15976;47.938;7.758;2023-08-06T03:12:22;15.00;90.90
28845;DHT22;15976;47.938;7.758;2023-08-06T03:14:49;15.00;90.90
28845;DHT22;15976;47.938;7.758;2023-08-06T03:17:17;14.90;90.90
28845;DHT22;15976;47.938;7.758;2023-08-06T03:19:44;15.00;91.00
28845;DHT22;15976;47.938;7.758;2023-08-06T03:22:12;14.90;90.70
28845;DHT22;15976;47.938;7.758;2023-08-06T03:24:40;14.80;90.90
28845;DHT22;15976;47.938;7.758;2023-08-06T03:27:07;14.80;91.00
28845;DHT22;15976;47.938;7.758;2023-08-06T03:29:37;14.70;91.00
28845;DHT22;15976;47.938;7.758;2023-08-06T03:32:05;14.60;91.00
28845;DHT22;15976;47.938;7.758;2023-08-06T03:34:32;14.60;91.00
28845;DHT22;15976;47.938;7.758;2023-08-06T03:37:00;14.60;91.00
28845;DHT22;15976;47.938;7.758;2023-08-06T03:39:27;14.50;91.20
28845;DHT22;15976;47.938;7.758;2023-08-06T03:41:54;14.50;91.20
28845;DHT22;15976;47.938;7.758;2023-08-06T03:44:22;14.60;91.30
28845;DHT22;15976;47.938;7.758;2023-08-06T03:46:50;14.60;91.20
28845;DHT22;15976;47.938;7.758;2023-08-06T03:49:17;14.60;91.00
28845;DHT22;15976;47.938;7.758;2023-08-06T03:51:45;14.50;90.90
28845;DHT22;15976;47.938;7.758;2023-08-06T03:54:13;14.40;91.00
28845;DHT22;15976;47.938;7.758;2023-08-06T03:56:40;14.40;91.00
28845;DHT22;15976;47.938;7.758;2023-08-06T03:59:08;14.40;91.10
28845;DHT22;15976;47.938;7.758;2023-08-06T04:01:35;14.30;90.90
28845;DHT22;15976;47.938;7.758;2023-08-06T04:04:02;14.40;90.80
28845;DHT22;15976;47.938;7.758;2023-08-06T04:06:29;14.20;90.40
28845;DHT22;15976;47.938;7.758;2023-08-06T04:08:56;14.10;90.60
28845;DHT22;15976;47.938;7.758;2023-08-06T04:11:23;14.10;90.80
28845;DHT22;15976;47.938;7.758;2023-08-06T04:13:50;14.10;91.00
28845;DHT22;15976;47.938;7.758;2023-08-06T04:16:17;14.10;91.00
28845;DHT22;15976;47.938;7.758;2023-08-06T04:18:44;14.10;90.90
28845;DHT22;15976;47.938;7.758;2023-08-06T04:21:12;14.10;91.00
28845;DHT22;15976;47.938;7.758;2023-08-06T04:23:40;14.10;90.80
28845;DHT22;15976;47.938;7.758;2023-08-06T04:26:08;14.10;90.80
28845;DHT22;15976;47.938;7.758;2023-08-06T04:28:37;14.00;90.90
28845;DHT22;15976;47.938;7.758;2023-08-06T04:31:04;14.10;91.00
28845;DHT22;15976;47.938;7.758;2023-08-06T04:33:33;14.10;90.90
28845;DHT22;15976;47.938;7.758;2023-08-06T04:36:06;14.10;90.90
28845;DHT22;15976;47.938;7.758;2023-08-06T04:38:34;14.20;90.90
28845;DHT22;15976;47.938;7.758;2023-08-06T04:41:02;14.20;90.60
28845;DHT22;15976;47.938;7.758;2023-08-06T04:43:31;14.20;90.50
28845;DHT22;15976;47.938;7.758;2023-08-06T04:45:58;14.20;90.40
28845;DHT22;15976;47.938;7.758;2023-08-06T04:48:26;14.30;90.40
28845;DHT22;15976;47.938;7.758;2023-08-06T04:50:53;14.20;90.30
28845;DHT22;15976;47.938;7.758;2023-08-06T04:53:21;14.30;90.30
28845;DHT22;15976;47.938;7.758;2023-08-06T04:55:48;14.30;90.20
28845;DHT22;15976;47.938;7.758;2023-08-06T04:58:15;14.40;90.20
28845;DHT22;15976;47.938;7.758;2023-08-06T05:00:42;14.30;90.20
28845;DHT22;15976;47.938;7.758;2023-08-06T05:03:10;14.30;90.40
28845;DHT22;15976;47.938;7.758;2023-08-06T05:05:40;14.20;90.40
28845;DHT22;15976;47.938;7.758;2023-08-06T05:08:14;14.20;90.70
28845;DHT22;15976;47.938;7.758;2023-08-06T05:10:44;14.10;91.00
28845;DHT22;15976;47.938;7.758;2023-08-06T05:13:11;14.10;91.10
28845;DHT22;15976;47.938;7.758;2023-08-06T05:15:39;14.00;91.40
28845;DHT22;15976;47.938;7.758;2023-08-06T05:18:09;14.00;91.70
28845;DHT22;15976;47.938;7.758;2023-08-06T05:20:37;13.90;91.80
28845;DHT22;15976;47.938;7.758;2023-08-06T05:23:05;13.90;92.40
28845;DHT22;15976;47.938;7.758;2023-08-06T05:25:33;13.90;92.10
28845;DHT22;15976;47.938;7.758;2023-08-06T05:28:01;13.90;92.30
28845;DHT22;15976;47.938;7.758;2023-08-06T05:30:29;13.90;92.50
28845;DHT22;15976;47.938;7.758;2023-08-06T05:32:59;13.90;92.50
28845;DHT22;15976;47.938;7.758;2023-08-06T05:35:26;13.90;92.70
28845;DHT22;15976;47.938;7.758;2023-08-06T05:37:53;13.90;92.70
28845;DHT22;15976;47.938;7.758;2023-08-06T05:40:20;13.80;92.60
28845;DHT22;15976;47.938;7.758;2023-08-06T05:42:47;13.80;92.90
28845;DHT22;15976;47.938;7.758;2023-08-06T05:45:14;13.80;92.90
28845;DHT22;15976;47.938;7.758;2023-08-06T05:47:42;13.80;92.90
28845;DHT22;15976;47.938;7.758;2023-08-06T05:50:09;13.80;93.10
28845;DHT22;15976;47.938;7.758;2023-08-06T05:52:36;13.80;93.10
28845;DHT22;15976;47.938;7.758;2023-08-06T05:55:03;13.80;93.20
28845;DHT22;15976;47.938;7.758;2023-08-06T05:57:30;13.80;93.20
28845;DHT22;15976;47.938;7.758;2023-08-06T05:59:57;13.80;93.30
28845;DHT22;15976;47.938;7.758;2023-08-06T06:02:24;13.80;93.20
28845;DHT22;15976;47.938;7.758;2023-08-06T06:04:51;13.80;93.30
28845;DHT22;15976;47.938;7.758;2023-08-06T06:07:19;13.80;93.20
28845;DHT22;15976;47.938;7.758;2023-08-06T06:09:46;13.70;93.30
28845;DHT22;15976;47.938;7.758;2023-08-06T06:12:13;13.70;93.50
28845;DHT22;15976;47.938;7.758;2023-08-06T06:14:40;13.70;93.50
28845;DHT22;15976;47.938;7.758;2023-08-06T06:17:07;13.80;93.50
28845;DHT22;15976;47.938;7.758;2023-08-06T06:19:34;13.70;93.60
28845;DHT22;15976;47.938;7.758;2023-08-06T06:22:01;13.70;93.60
28845;DHT22;15976;47.938;7.758;2023-08-06T06:24:28;13.80;93.50
28845;DHT22;15976;47.938;7.758;2023-08-06T06:26:55;13.80;93.50
28845;DHT22;15976;47.938;7.758;2023-08-06T06:29:22;13.80;93.60
28845;DHT22;15976;47.938;7.758;2023-08-06T06:31:49;13.80;93.70
28845;DHT22;15976;47.938;7.758;2023-08-06T06:34:16;13.90;93.60
28845;DHT22;15976;47.938;7.758;2023-08-06T06:36:43;13.80;93.70
28845;DHT22;15976;47.938;7.758;2023-08-06T06:39:10;13.90;93.70
28845;DHT22;15976;47.938;7.758;2023-08-06T06:41:37;13.80;93.70
28845;DHT22;15976;47.938;7.758;2023-08-06T06:44:11;13.90;93.70
28845;DHT22;15976;47.938;7.758;2023-08-06T06:46:38;13.80;93.70
28845;DHT22;15976;47.938;7.758;2023-08-06T06:49:05;13.90;93.80
28845;DHT22;15976;47.938;7.758;2023-08-06T06:51:32;13.90;93.80
28845;DHT22;15976;47.938;7.758;2023-08-06T06:53:59;13.90;93.70
28845;DHT22;15976;47.938;7.758;2023-08-06T06:56:26;13.80;93.80
28845;DHT22;15976;47.938;7.758;2023-08-06T06:58:53;13.80;93.80
28845;DHT22;15976;47.938;7.758;2023-08-06T07:01:20;13.80;93.90
28845;DHT22;15976;47.938;7.758;2023-08-06T07:03:47;13.90;94.00
28845;DHT22;15976;47.938;7.758;2023-08-06T07:06:18;13.90;94.00
28845;DHT22;15976;47.938;7.758;2023-08-06T07:08:45;13.90;93.90
28845;DHT22;15976;47.938;7.758;2023-08-06T07:11:13;13.80;94.10
28845;DHT22;15976;47.938;7.758;2023-08-06T07:13:57;13.80;94.20
28845;DHT22;15976;47.938;7.758;2023-08-06T07:16:34;13.90;94.40
28845;DHT22;15976;47.938;7.758;2023-08-06T07:19:04;14.00;94.30
28845;DHT22;15976;47.938;7.758;2023-08-06T07:21:32;13.90;94.10
28845;DHT22;15976;47.938;7.758;2023-08-06T07:24:00;13.90;94.30
28845;DHT22;15976;47.938;7.758;2023-08-06T07:26:27;14.00;94.30
28845;DHT22;15976;47.938;7.758;2023-08-06T07:28:55;14.00;94.30
28845;DHT22;15976;47.938;7.758;2023-08-06T07:31:45;14.00;94.20
28845;DHT22;15976;47.938;7.758;2023-08-06T07:34:13;14.00;94.30
28845;DHT22;15976;47.938;7.758;2023-08-06T07:36:44;14.00;94.50
28845;DHT22;15976;47.938;7.758;2023-08-06T07:39:17;14.10;94.50
28845;DHT22;15976;47.938;7.758;2023-08-06T07:42:05;14.20;94.40
28845;DHT22;15976;47.938;7.758;2023-08-06T07:44:55;14.20;94.30
28845;DHT22;15976;47.938;7.758;2023-08-06T07:47:26;14.20;94.30
28845;DHT22;15976;47.938;7.758;2023-08-06T07:49:53;14.20;94.20
28845;DHT22;15976;47.938;7.758;2023-08-06T07:52:22;14.20;94.20
28845;DHT22;15976;47.938;7.758;2023-08-06T07:54:49;14.20;94.40
28845;DHT22;15976;47.938;7.758;2023-08-06T07:57:18;14.30;94.30
28845;DHT22;15976;47.938;7.758;2023-08-06T07:59:51;14.30;94.40
28845;DHT22;15976;47.938;7.758;2023-08-06T08:03:22;14.40;94.20
28845;DHT22;15976;47.938;7.758;2023-08-06T08:05:49;14.40;94.00
28845;DHT22;15976;47.938;7.758;2023-08-06T08:08:19;14.40;94.20
28845;DHT22;15976;47.938;7.758;2023-08-06T08:10:57;14.40;94.30
28845;DHT22;15976;47.938;7.758;2023-08-06T08:13:27;14.30;93.90
28845;DHT22;15976;47.938;7.758;2023-08-06T08:15:58;14.20;93.90
28845;DHT22;15976;47.938;7.758;2023-08-06T08:18:27;14.20;94.00
28845;DHT22;15976;47.938;7.758;2023-08-06T08:20:54;14.10;94.20
28845;DHT22;15976;47.938;7.758;2023-08-06T08:23:22;14.10;94.20
28845;DHT22;15976;47.938;7.758;2023-08-06T08:25:52;14.10;94.40
28845;DHT22;15976;47.938;7.758;2023-08-06T08:28:23;14.20;94.40
28845;DHT22;15976;47.938;7.758;2023-08-06T08:30:50;14.10;94.30
28845;DHT22;15976;47.938;7.758;2023-08-06T08:33:21;14.10;94.30
28845;DHT22;15976;47.938;7.758;2023-08-06T08:35:49;14.10;94.20
28845;DHT22;15976;47.938;7.758;2023-08-06T08:38:16;14.10;94.40
28845;DHT22;15976;47.938;7.758;2023-08-06T08:40:52;14.00;94.50
28845;DHT22;15976;47.938;7.758;2023-08-06T08:43:22;14.10;94.50
28845;DHT22;15976;47.938;7.758;2023-08-06T08:45:50;14.10;94.60
28845;DHT22;15976;47.938;7.758;2023-08-06T08:48:18;14.10;94.70
28845;DHT22;15976;47.938;7.758;2023-08-06T08:50:47;14.20;94.60
28845;DHT22;15976;47.938;7.758;2023-08-06T08:53:16;14.20;94.60
28845;DHT22;15976;47.938;7.758;2023-08-06T08:55:47;14.20;94.40
28845;DHT22;15976;47.938;7.758;2023-08-06T08:58:15;14.20;94.40
28845;DHT22;15976;47.938;7.758;2023-08-06T09:00:42;14.10;94.40
28845;DHT22;15976;47.938;7.758;2023-08-06T09:03:09;14.10;94.50
28845;DHT22;15976;47.938;7.758;2023-08-06T09:05:43;14.20;94.60
28845;DHT22;15976;47.938;7.758;2023-08-06T09:08:12;14.20;94.60
28845;DHT22;15976;47.938;7.758;2023-08-06T09:10:43;14.30;94.90
28845;DHT22;15976;47.938;7.758;2023-08-06T09:13:10;14.30;94.60
28845;DHT22;15976;47.938;7.758;2023-08-06T09:15:39;14.30;94.40
28845;DHT22;15976;47.938;7.758;2023-08-06T09:18:10;14.30;94.30
28845;DHT22;15976;47.938;7.758;2023-08-06T09:20:39;14.30;94.20
28845;DHT22;15976;47.938;7.758;2023-08-06T09:23:09;14.30;94.30
28845;DHT22;15976;47.938;7.758;2023-08-06T09:25:40;14.30;94.30
28845;DHT22;15976;47.938;7.758;2023-08-06T09:28:11;14.30;94.40
28845;DHT22;15976;47.938;7.758;2023-08-06T09:30:44;14.30;94.50
28845;DHT22;15976;47.938;7.758;2023-08-06T09:33:19;14.40;94.50
28845;DHT22;15976;47.938;7.758;2023-08-06T09:35:46;14.40;94.30
28845;DHT22;15976;47.938;7.758;2023-08-06T09:38:15;14.40;94.20
28845;DHT22;15976;47.938;7.758;2023-08-06T09:40:42;14.40;94.10
28845;DHT22;15976;47.938;7.758;2023-08-06T09:43:11;14.40;94.10
28845;DHT22;15976;47.938;7.758;2023-08-06T09:45:39;14.40;94.00
28845;DHT22;15976;47.938;7.758;2023-08-06T09:48:08;14.40;94.00
28845;DHT22;15976;47.938;7.758;2023-08-06T09:50:37;14.40;94.00
28845;DHT22;15976;47.938;7.758;2023-08-06T09:53:06;14.40;94.10
28845;DHT22;15976;47.938;7.758;2023-08-06T09:55:38;14.40;94.10
28845;DHT22;15976;47.938;7.758;2023-08-06T09:58:30;14.40;94.00
28845;DHT22;15976;47.938;7.758;2023-08-06T10:06:45;14.50;94.10
28845;DHT22;15976;47.938;7.758;2023-08-06T10:09:29;14.50;94.10
28845;DHT22;15976;47.938;7.758;2023-08-06T10:12:06;14.50;93.90
28845;DHT22;15976;47.938;7.758;2023-08-06T10:18:58;14.60;93.60
28845;DHT22;15976;47.938;7.758;2023-08-06T10:28:06;14.90;93.00
28845;DHT22;15976;47.938;7.758;2023-08-06T10:30:48;15.00;92.90
28845;DHT22;15976;47.938;7.758;2023-08-06T10:33:15;15.00;92.80
28845;DHT22;15976;47.938;7.758;2023-08-06T10:36:15;15.00;92.70
28845;DHT22;15976;47.938;7.758;2023-08-06T10:39:21;15.10;92.60
28845;DHT22;15976;47.938;7.758;2023-08-06T10:42:01;15.20;92.40
28845;DHT22;15976;47.938;7.758;2023-08-06T10:47:42;15.30;92.30
28845;DHT22;15976;47.938;7.758;2023-08-06T10:50:19;15.30;92.00
28845;DHT22;15976;47.938;7.758;2023-08-06T10:52:51;15.40;92.00
28845;DHT22;15976;47.938;7.758;2023-08-06T10:55:28;15.30;91.70
28845;DHT22;15976;47.938;7.758;2023-08-06T10:57:56;15.30;91.40
28845;DHT22;15976;47.938;7.758;2023-08-06T11:00:25;15.20;91.50
28845;DHT22;15976;47.938;7.758;2023-08-06T11:02:53;15.10;91.80
28845;DHT22;15976;47.938;7.758;2023-08-06T11:05:20;15.00;92.10
28845;DHT22;15976;47.938;7.758;2023-08-06T11:11:21;15.00;92.50
28845;DHT22;15976;47.938;7.758;2023-08-06T11:14:16;15.00;92.70
28845;DHT22;15976;47.938;7.758;2023-08-06T11:17:00;15.00;92.70
28845;DHT22;15976;47.938;7.758;2023-08-06T11:19:52;15.10;92.90
28845;DHT22;15976;47.938;7.758;2023-08-06T11:22:21;15.00;92.60
28845;DHT22;15976;47.938;7.758;2023-08-06T11:24:49;14.90;92.80
28845;DHT22;15976;47.938;7.758;2023-08-06T11:27:17;15.00;93.00
28845;DHT22;15976;47.938;7.758;2023-08-06T11:29:44;14.90;93.10
28845;DHT22;15976;47.938;7.758;2023-08-06T11:32:11;15.00;93.10
28845;DHT22;15976;47.938;7.758;2023-08-06T11:35:11;14.90;92.90
28845;DHT22;15976;47.938;7.758;2023-08-06T11:37:48;14.90;93.10
28845;DHT22;15976;47.938;7.758;2023-08-06T11:40:15;14.90;93.20
28845;DHT22;15976;47.938;7.758;2023-08-06T11:42:47;14.90;93.20
28845;DHT22;15976;47.938;7.758;2023-08-06T11:45:14;14.90;93.20
28845;DHT22;15976;47.938;7.758;2023-08-06T11:47:41;15.00;93.50
28845;DHT22;15976;47.938;7.758;2023-08-06T11:50:08;15.10;93.30
28845;DHT22;15976;47.938;7.758;2023-08-06T11:52:39;15.10;93.10
28845;DHT22;15976;47.938;7.758;2023-08-06T11:55:08;15.10;93.30
28845;DHT22;15976;47.938;7.758;2023-08-06T11:57:39;15.10;93.10
28845;DHT22;15976;47.938;7.758;2023-08-06T12:00:14;15.20;93.10
28845;DHT22;15976;47.938;7.758;2023-08-06T12:03:09;15.20;93.60
28845;DHT22;15976;47.938;7.758;2023-08-06T12:05:39;15.30;93.20
28845;DHT22;15976;47.938;7.758;2023-08-06T12:08:09;15.30;92.60
28845;DHT22;15976;47.938;7.758;2023-08-06T12:10:36;15.30;92.70
28845;DHT22;15976;47.938;7.758;2023-08-06T12:13:03;15.40;92.80
28845;DHT22;15976;47.938;7.758;2023-08-06T12:15:41;15.40;92.60
28845;DHT22;15976;47.938;7.758;2023-08-06T12:18:09;15.40;92.30
28845;DHT22;15976;47.938;7.758;2023-08-06T12:20:38;15.50;92.50
28845;DHT22;15976;47.938;7.758;2023-08-06T12:23:08;15.80;92.40
28845;DHT22;15976;47.938;7.758;2023-08-06T12:25:36;16.00;91.90
28845;DHT22;15976;47.938;7.758;2023-08-06T12:28:04;16.20;91.30
28845;DHT22;15976;47.938;7.758;2023-08-06T12:30:32;16.40;91.30
28845;DHT22;15976;47.938;7.758;2023-08-06T12:35:54;17.10;88.60
28845;DHT22;15976;47.938;7.758;2023-08-06T12:38:35;17.20;86.40
28845;DHT22;15976;47.938;7.758;2023-08-06T12:41:02;17.20;84.90
28845;DHT22;15976;47.938;7.758;2023-08-06T12:43:29;17.10;84.30
28845;DHT22;15976;47.938;7.758;2023-08-06T12:45:56;17.10;83.50
28845;DHT22;15976;47.938;7.758;2023-08-06T12:48:24;17.00;82.00
28845;DHT22;15976;47.938;7.758;2023-08-06T12:50:51;17.00;80.00
28845;DHT22;15976;47.938;7.758;2023-08-06T12:53:22;17.00;78.70
28845;DHT22;15976;47.938;7.758;2023-08-06T12:55:50;16.90;78.30
28845;DHT22;15976;47.938;7.758;2023-08-06T12:58:20;16.90;78.20
28845;DHT22;15976;47.938;7.758;2023-08-06T13:00:47;16.90;77.80
28845;DHT22;15976;47.938;7.758;2023-08-06T13:03:22;16.90;76.90
28845;DHT22;15976;47.938;7.758;2023-08-06T13:05:49;17.00;76.60
28845;DHT22;15976;47.938;7.758;2023-08-06T13:08:21;17.10;75.50
28845;DHT22;15976;47.938;7.758;2023-08-06T13:11:15;17.20;75.40
28845;DHT22;15976;47.938;7.758;2023-08-06T13:14:16;17.40;73.40
28845;DHT22;15976;47.938;7.758;2023-08-06T13:17:12;17.60;71.50
28845;DHT22;15976;47.938;7.758;2023-08-06T13:19:59;17.70;70.90
28845;DHT22;15976;47.938;7.758;2023-08-06T13:26:12;17.70;70.80
28845;DHT22;15976;47.938;7.758;2023-08-06T13:28:39;17.60;71.00
28845;DHT22;15976;47.938;7.758;2023-08-06T13:31:12;17.60;71.10
28845;DHT22;15976;47.938;7.758;2023-08-06T13:33:57;17.60;70.80
28845;DHT22;15976;47.938;7.758;2023-08-06T13:36:56;17.70;70.60
28845;DHT22;15976;47.938;7.758;2023-08-06T13:39:32;17.80;69.60
28845;DHT22;15976;47.938;7.758;2023-08-06T13:42:09;17.80;69.10
28845;DHT22;15976;47.938;7.758;2023-08-06T13:45:05;17.80;67.70
28845;DHT22;15976;47.938;7.758;2023-08-06T13:47:34;17.80;67.60
28845;DHT22;15976;47.938;7.758;2023-08-06T13:50:02;17.70;68.00
28845;DHT22;15976;47.938;7.758;2023-08-06T13:52:31;17.70;67.50
28845;DHT22;15976;47.938;7.758;2023-08-06T13:55:01;17.60;67.30
28845;DHT22;15976;47.938;7.758;2023-08-06T13:57:34;17.70;66.50
28845;DHT22;15976;47.938;7.758;2023-08-06T14:00:12;17.60;65.50
28845;DHT22;15976;47.938;7.758;2023-08-06T14:02:48;17.60;63.80
28845;DHT22;15976;47.938;7.758;2023-08-06T14:16:44;18.10;63.80
28845;DHT22;15976;47.938;7.758;2023-08-06T14:20:00;19.60;63.30
28845;DHT22;15976;47.938;7.758;2023-08-06T14:22:45;20.40;60.00
28845;DHT22;15976;47.938;7.758;2023-08-06T14:25:28;20.40;57.90
28845;DHT22;15976;47.938;7.758;2023-08-06T14:28:05;20.10;57.90
28845;DHT22;15976;47.938;7.758;2023-08-06T14:30:39;19.70;58.10
28845;DHT22;15976;47.938;7.758;2023-08-06T14:33:09;19.10;60.90
28845;DHT22;15976;47.938;7.758;2023-08-06T14:35:52;18.70;63.70
28845;DHT22;15976;47.938;7.758;2023-08-06T14:38:19;18.60;65.50
28845;DHT22;15976;47.938;7.758;2023-08-06T14:40:47;18.50;65.80
28845;DHT22;15976;47.938;7.758;2023-08-06T14:43:14;18.60;66.00
28845;DHT22;15976;47.938;7.758;2023-08-06T14:45:41;19.80;66.30
28845;DHT22;15976;47.938;7.758;2023-08-06T14:48:09;21.70;62.50
28845;DHT22;15976;47.938;7.758;2023-08-06T14:50:36;23.20;55.50
28845;DHT22;15976;47.938;7.758;2023-08-06T14:53:05;23.50;53.60
28845;DHT22;15976;47.938;7.758;2023-08-06T14:55:37;23.30;52.00
28845;DHT22;15976;47.938;7.758;2023-08-06T14:58:05;22.80;51.80
28845;DHT22;15976;47.938;7.758;2023-08-06T15:00:33;22.20;52.80
28845;DHT22;15976;47.938;7.758;2023-08-06T15:03:00;21.70;53.90
28845;DHT22;15976;47.938;7.758;2023-08-06T15:05:34;21.60;54.80
28845;DHT22;15976;47.938;7.758;2023-08-06T15:08:04;21.40;54.30
28845;DHT22;15976;47.938;7.758;2023-08-06T15:10:35;21.10;54.10
